createdAt,value
2022-08-17T09:43:47.497Z,146.23
2022-08-17T09:46:28.651Z,137.00
2022-08-17T09:49:26.284Z,116.72
2022-08-17T09:57:30.507Z,126.90
2022-08-17T10:00:00.772Z,107.60
2022-08-17T10:03:05.639Z,107.75
2022-08-17T10:05:56.507Z,95.43
2022-08-17T10:08:53.056Z,90.40
2022-08-17T10:11:45.928Z,97.47
2022-08-17T10:17:14.603Z,98.70
2022-08-17T10:20:01.314Z,100.75
2022-08-17T10:23:07.513Z,105.03
2022-08-17T10:26:13.695Z,101.78
2022-08-17T10:28:53.801Z,96.45
2022-08-17T10:31:34.920Z,91.88
2022-08-17T10:34:41.177Z,88.60
2022-08-17T10:37:30.434Z,87.28
2022-08-17T10:40:21.152Z,79.28
2022-08-17T10:43:07.042Z,80.70
2022-08-17T10:45:45.497Z,77.35
2022-08-17T10:48:14.174Z,75.20
2022-08-17T10:50:57.604Z,78.57
2022-08-17T10:53:33.738Z,77.70
2022-08-17T10:56:13.108Z,72.70
2022-08-17T10:58:59.109Z,63.92
2022-08-17T11:01:26.067Z,67.93
2022-08-17T11:03:55.641Z,63.42
2022-08-17T11:06:47.512Z,63.92
2022-08-17T11:09:53.137Z,59.72
2022-08-17T11:12:57.409Z,61.53
2022-08-17T11:15:42.306Z,57.78
2022-08-17T11:18:48.657Z,55.55
2022-08-17T11:21:43.630Z,53.17
2022-08-17T11:24:16.630Z,49.53
2022-08-17T11:27:06.206Z,45.40
2022-08-17T11:30:02.127Z,42.97
2022-08-17T11:32:53.072Z,42.28
2022-08-17T11:35:21.736Z,41.58
2022-08-17T11:38:03.092Z,42.95
2022-08-17T11:40:53.955Z,36.65
2022-08-17T11:43:44.448Z,46.25
2022-08-17T11:46:53.831Z,45.88
2022-08-17T11:50:01.974Z,37.55
2022-08-17T11:53:01.229Z,37.60
2022-08-17T11:55:41.736Z,40.47
2022-08-17T12:01:13.508Z,45.28
2022-08-17T12:03:54.068Z,49.90
2022-08-17T12:06:31.319Z,50.35
2022-08-17T12:09:06.976Z,49.95
2022-08-17T12:12:12.554Z,56.60
2022-08-17T12:15:09.989Z,48.45
2022-08-17T12:17:40.194Z,57.00
2022-08-17T12:23:01.221Z,53.50
2022-08-17T12:25:49.603Z,50.97
2022-08-17T12:47:10.707Z,47.88
2022-08-17T12:49:42.185Z,47.00
2022-08-17T12:52:17.149Z,47.97
2022-08-17T12:54:52.400Z,51.55
2022-08-17T12:57:23.573Z,49.65
2022-08-17T12:59:55.182Z,59.17
2022-08-17T13:02:30.345Z,55.45
2022-08-17T13:05:00.363Z,58.65
2022-08-17T22:09:45.481Z,49.77
2022-08-17T22:12:16.054Z,50.40
2022-08-17T22:14:52.198Z,56.65
2022-08-17T22:17:36.465Z,55.67
2022-08-17T22:20:14.413Z,52.97
2022-08-17T22:23:08.809Z,51.93
2022-08-17T22:25:57.411Z,51.87
2022-08-17T22:28:41.661Z,48.13
2022-08-17T22:31:14.471Z,52.28
2022-08-17T22:33:45.799Z,49.30
2022-08-17T22:36:12.733Z,50.80
2022-08-17T22:38:41.249Z,53.47
2022-08-17T22:41:34.381Z,54.80
2022-08-17T22:44:23.039Z,45.45
2022-08-17T22:47:14.569Z,42.90
2022-08-17T22:49:57.634Z,50.30
2022-08-17T22:52:59.579Z,42.80
2022-08-17T22:55:47.983Z,36.90
2022-08-17T22:58:37.221Z,34.75
2022-08-17T23:01:26.054Z,32.20
2022-08-17T23:04:02.531Z,32.42
2022-08-17T23:06:33.892Z,35.55
2022-08-17T23:09:03.870Z,31.27
2022-08-17T23:11:49.267Z,29.80
2022-08-17T23:14:19.833Z,27.65
2022-08-17T23:16:47.762Z,26.03
2022-08-17T23:19:18.152Z,32.80
2022-08-17T23:21:45.583Z,29.35
2022-08-17T23:24:19.060Z,37.42
2022-08-17T23:26:45.921Z,26.13
2022-08-17T23:29:13.223Z,28.88
2022-08-17T23:31:40.833Z,25.63
2022-08-17T23:34:12.511Z,32.10
2022-08-17T23:36:39.511Z,35.33
2022-08-17T23:39:07.559Z,29.60
2022-08-17T23:41:38.742Z,32.80
2022-08-17T23:44:06.945Z,29.30
2022-08-17T23:46:34.636Z,32.42
2022-08-17T23:49:01.833Z,33.13
2022-08-17T23:51:36.625Z,28.00
2022-08-17T23:54:12.511Z,32.55
2022-08-17T23:56:46.631Z,25.27
2022-08-17T23:59:15.563Z,29.23
